sensor_id;sensor_type;location;lat;lon;timestamp;P1;durP1;ratioP1;P2;durP2;ratioP2
71236;SDS011;58984;51.960;5.582;2022-12-16T00:02:15;63.42;;;36.60;;
71236;SDS011;58984;51.960;5.582;2022-12-16T00:04:40;54.70;;;35.55;;
71236;SDS011;58984;51.960;5.582;2022-12-16T00:07:06;58.03;;;34.78;;
71236;SDS011;58984;51.960;5.582;2022-12-16T00:09:31;60.10;;;35.53;;
71236;SDS011;58984;51.960;5.582;2022-12-16T00:11:57;56.20;;;36.90;;
71236;SDS011;58984;51.960;5.582;2022-12-16T00:14:22;61.15;;;36.08;;
71236;SDS011;58984;51.960;5.582;2022-12-16T00:16:48;58.55;;;35.28;;
71236;SDS011;58984;51.960;5.582;2022-12-16T00:19:13;53.83;;;36.22;;
71236;SDS011;58984;51.960;5.582;2022-12-16T00:21:39;60.33;;;36.00;;
71236;SDS011;58984;51.960;5.582;2022-12-16T00:24:04;58.47;;;36.28;;
71236;SDS011;58984;51.960;5.582;2022-12-16T00:26:30;63.13;;;36.58;;
71236;SDS011;58984;51.960;5.582;2022-12-16T00:28:56;61.78;;;37.30;;
71236;SDS011;58984;51.960;5.582;2022-12-16T00:31:22;60.33;;;36.33;;
71236;SDS011;58984;51.960;5.582;2022-12-16T00:33:48;61.63;;;35.90;;
71236;SDS011;58984;51.960;5.582;2022-12-16T00:36:13;61.85;;;35.70;;
71236;SDS011;58984;51.960;5.582;2022-12-16T00:38:39;55.28;;;35.58;;
71236;SDS011;58984;51.960;5.582;2022-12-16T00:41:05;54.22;;;36.25;;
71236;SDS011;58984;51.960;5.582;2022-12-16T00:43:30;57.67;;;35.42;;
71236;SDS011;58984;51.960;5.582;2022-12-16T00:45:56;63.28;;;36.58;;
71236;SDS011;58984;51.960;5.582;2022-12-16T00:48:22;63.50;;;36.83;;
71236;SDS011;58984;51.960;5.582;2022-12-16T00:50:51;58.20;;;35.15;;
71236;SDS011;58984;51.960;5.582;2022-12-16T00:53:21;55.25;;;35.78;;
71236;SDS011;58984;51.960;5.582;2022-12-16T00:55:47;56.33;;;34.38;;
71236;SDS011;58984;51.960;5.582;2022-12-16T00:58:13;58.75;;;34.85;;
71236;SDS011;58984;51.960;5.582;2022-12-16T01:00:39;57.55;;;35.28;;
71236;SDS011;58984;51.960;5.582;2022-12-16T01:03:05;59.25;;;35.65;;
71236;SDS011;58984;51.960;5.582;2022-12-16T01:05:30;57.05;;;33.75;;
71236;SDS011;58984;51.960;5.582;2022-12-16T01:07:56;52.50;;;33.60;;
71236;SDS011;58984;51.960;5.582;2022-12-16T01:10:22;59.35;;;36.63;;
71236;SDS011;58984;51.960;5.582;2022-12-16T01:12:49;46.30;;;34.92;;
71236;SDS011;58984;51.960;5.582;2022-12-16T01:15:14;56.92;;;34.13;;
71236;SDS011;58984;51.960;5.582;2022-12-16T01:17:40;52.55;;;34.83;;
71236;SDS011;58984;51.960;5.582;2022-12-16T01:20:06;56.88;;;34.15;;
71236;SDS011;58984;51.960;5.582;2022-12-16T01:22:33;51.70;;;34.13;;
71236;SDS011;58984;51.960;5.582;2022-12-16T01:24:59;56.67;;;33.67;;
71236;SDS011;58984;51.960;5.582;2022-12-16T01:27:25;53.42;;;33.90;;
71236;SDS011;58984;51.960;5.582;2022-12-16T01:29:52;57.67;;;35.25;;
71236;SDS011;58984;51.960;5.582;2022-12-16T01:32:18;58.40;;;33.67;;
71236;SDS011;58984;51.960;5.582;2022-12-16T01:34:47;56.63;;;34.70;;
71236;SDS011;58984;51.960;5.582;2022-12-16T01:37:14;57.53;;;32.65;;
71236;SDS011;58984;51.960;5.582;2022-12-16T01:39:39;63.60;;;35.58;;
71236;SDS011;58984;51.960;5.582;2022-12-16T01:42:12;52.92;;;33.85;;
71236;SDS011;58984;51.960;5.582;2022-12-16T01:44:42;57.95;;;33.30;;
71236;SDS011;58984;51.960;5.582;2022-12-16T01:47:14;53.45;;;32.40;;
71236;SDS011;58984;51.960;5.582;2022-12-16T01:49:43;53.65;;;33.25;;
71236;SDS011;58984;51.960;5.582;2022-12-16T01:52:17;55.63;;;35.03;;
71236;SDS011;58984;51.960;5.582;2022-12-16T01:54:49;50.17;;;33.30;;
71236;SDS011;58984;51.960;5.582;2022-12-16T01:57:36;58.70;;;35.13;;
71236;SDS011;58984;51.960;5.582;2022-12-16T02:00:06;56.33;;;33.70;;
71236;SDS011;58984;51.960;5.582;2022-12-16T02:02:33;52.33;;;33.85;;
71236;SDS011;58984;51.960;5.582;2022-12-16T02:04:59;59.00;;;34.72;;
71236;SDS011;58984;51.960;5.582;2022-12-16T02:07:53;61.47;;;36.35;;
71236;SDS011;58984;51.960;5.582;2022-12-16T02:10:46;61.20;;;34.03;;
71236;SDS011;58984;51.960;5.582;2022-12-16T02:13:54;54.42;;;34.35;;
71236;SDS011;58984;51.960;5.582;2022-12-16T02:27:37;55.40;;;35.03;;
71236;SDS011;58984;51.960;5.582;2022-12-16T02:35:46;55.00;;;34.22;;
71236;SDS011;58984;51.960;5.582;2022-12-16T02:41:45;55.80;;;35.80;;
71236;SDS011;58984;51.960;5.582;2022-12-16T02:44:25;61.28;;;36.20;;
71236;SDS011;58984;51.960;5.582;2022-12-16T02:47:29;53.55;;;33.85;;
71236;SDS011;58984;51.960;5.582;2022-12-16T02:49:56;58.45;;;33.78;;
71236;SDS011;58984;51.960;5.582;2022-12-16T02:52:23;56.38;;;35.30;;
71236;SDS011;58984;51.960;5.582;2022-12-16T02:54:52;56.72;;;34.67;;
71236;SDS011;58984;51.960;5.582;2022-12-16T02:57:26;55.53;;;33.95;;
71236;SDS011;58984;51.960;5.582;2022-12-16T03:05:13;60.20;;;35.58;;
71236;SDS011;58984;51.960;5.582;2022-12-16T03:07:42;55.13;;;34.53;;
71236;SDS011;58984;51.960;5.582;2022-12-16T03:10:11;57.60;;;35.45;;
71236;SDS011;58984;51.960;5.582;2022-12-16T03:12:40;55.72;;;34.05;;
71236;SDS011;58984;51.960;5.582;2022-12-16T03:15:09;49.03;;;33.85;;
71236;SDS011;58984;51.960;5.582;2022-12-16T03:17:37;53.72;;;33.70;;
71236;SDS011;58984;51.960;5.582;2022-12-16T03:20:37;54.72;;;34.72;;
71236;SDS011;58984;51.960;5.582;2022-12-16T03:23:27;53.58;;;35.13;;
71236;SDS011;58984;51.960;5.582;2022-12-16T03:25:58;49.88;;;33.50;;
71236;SDS011;58984;51.960;5.582;2022-12-16T03:28:35;52.50;;;34.75;;
71236;SDS011;58984;51.960;5.582;2022-12-16T03:31:14;54.88;;;34.08;;
71236;SDS011;58984;51.960;5.582;2022-12-16T03:36:29;57.83;;;34.00;;
71236;SDS011;58984;51.960;5.582;2022-12-16T03:38:58;49.60;;;33.00;;
71236;SDS011;58984;51.960;5.582;2022-12-16T03:41:25;54.20;;;34.90;;
71236;SDS011;58984;51.960;5.582;2022-12-16T03:43:52;50.47;;;34.65;;
71236;SDS011;58984;51.960;5.582;2022-12-16T03:46:21;53.80;;;33.92;;
71236;SDS011;58984;51.960;5.582;2022-12-16T03:48:49;52.28;;;33.88;;
71236;SDS011;58984;51.960;5.582;2022-12-16T03:51:15;50.35;;;32.65;;
71236;SDS011;58984;51.960;5.582;2022-12-16T03:53:42;55.38;;;32.40;;
71236;SDS011;58984;51.960;5.582;2022-12-16T03:56:08;53.50;;;33.60;;
71236;SDS011;58984;51.960;5.582;2022-12-16T03:58:34;50.17;;;33.83;;
71236;SDS011;58984;51.960;5.582;2022-12-16T04:01:01;49.65;;;31.85;;
71236;SDS011;58984;51.960;5.582;2022-12-16T04:03:27;51.92;;;32.55;;
71236;SDS011;58984;51.960;5.582;2022-12-16T04:05:52;55.88;;;32.30;;
71236;SDS011;58984;51.960;5.582;2022-12-16T04:08:18;52.25;;;32.83;;
71236;SDS011;58984;51.960;5.582;2022-12-16T04:10:43;46.95;;;30.98;;
71236;SDS011;58984;51.960;5.582;2022-12-16T04:13:28;50.67;;;32.50;;
71236;SDS011;58984;51.960;5.582;2022-12-16T04:16:13;53.53;;;31.75;;
71236;SDS011;58984;51.960;5.582;2022-12-16T04:18:59;53.33;;;33.28;;
71236;SDS011;58984;51.960;5.582;2022-12-16T04:21:44;51.90;;;33.58;;
71236;SDS011;58984;51.960;5.582;2022-12-16T04:24:28;47.22;;;30.77;;
71236;SDS011;58984;51.960;5.582;2022-12-16T04:26:55;56.42;;;32.10;;
71236;SDS011;58984;51.960;5.582;2022-12-16T04:29:39;56.53;;;31.50;;
71236;SDS011;58984;51.960;5.582;2022-12-16T04:32:23;47.08;;;31.17;;
71236;SDS011;58984;51.960;5.582;2022-12-16T04:34:49;50.28;;;31.60;;
71236;SDS011;58984;51.960;5.582;2022-12-16T04:37:16;56.50;;;32.45;;
71236;SDS011;58984;51.960;5.582;2022-12-16T04:40:00;50.90;;;31.95;;
71236;SDS011;58984;51.960;5.582;2022-12-16T04:42:44;46.45;;;31.27;;
71236;SDS011;58984;51.960;5.582;2022-12-16T04:45:28;55.85;;;31.83;;
71236;SDS011;58984;51.960;5.582;2022-12-16T04:48:12;54.92;;;29.67;;
71236;SDS011;58984;51.960;5.582;2022-12-16T04:50:56;45.00;;;28.52;;
71236;SDS011;58984;51.960;5.582;2022-12-16T04:53:40;46.15;;;30.48;;
71236;SDS011;58984;51.960;5.582;2022-12-16T04:56:24;47.15;;;29.35;;
71236;SDS011;58984;51.960;5.582;2022-12-16T04:59:08;50.85;;;30.13;;
71236;SDS011;58984;51.960;5.582;2022-12-16T05:01:52;50.65;;;29.48;;
71236;SDS011;58984;51.960;5.582;2022-12-16T05:04:36;45.58;;;29.55;;
71236;SDS011;58984;51.960;5.582;2022-12-16T05:07:21;52.67;;;28.80;;
71236;SDS011;58984;51.960;5.582;2022-12-16T05:10:05;46.58;;;27.42;;
71236;SDS011;58984;51.960;5.582;2022-12-16T05:12:53;45.58;;;28.60;;
71236;SDS011;58984;51.960;5.582;2022-12-16T05:15:38;44.95;;;28.40;;
71236;SDS011;58984;51.960;5.582;2022-12-16T05:18:22;44.42;;;28.02;;
71236;SDS011;58984;51.960;5.582;2022-12-16T05:21:06;43.75;;;27.50;;
71236;SDS011;58984;51.960;5.582;2022-12-16T05:23:51;46.35;;;28.85;;
71236;SDS011;58984;51.960;5.582;2022-12-16T05:26:35;44.08;;;26.95;;
71236;SDS011;58984;51.960;5.582;2022-12-16T05:29:19;44.42;;;26.92;;
71236;SDS011;58984;51.960;5.582;2022-12-16T05:32:03;40.75;;;27.35;;
71236;SDS011;58984;51.960;5.582;2022-12-16T05:34:47;43.13;;;26.05;;
71236;SDS011;58984;51.960;5.582;2022-12-16T05:37:31;45.33;;;27.05;;
71236;SDS011;58984;51.960;5.582;2022-12-16T05:40:15;47.72;;;26.05;;
71236;SDS011;58984;51.960;5.582;2022-12-16T05:42:59;40.70;;;26.00;;
71236;SDS011;58984;51.960;5.582;2022-12-16T05:45:43;44.05;;;24.73;;
71236;SDS011;58984;51.960;5.582;2022-12-16T05:48:27;40.00;;;25.98;;
71236;SDS011;58984;51.960;5.582;2022-12-16T05:51:11;40.30;;;25.08;;
71236;SDS011;58984;51.960;5.582;2022-12-16T05:53:55;38.00;;;25.30;;
71236;SDS011;58984;51.960;5.582;2022-12-16T05:56:39;41.10;;;24.33;;
71236;SDS011;58984;51.960;5.582;2022-12-16T05:59:23;36.47;;;23.92;;
71236;SDS011;58984;51.960;5.582;2022-12-16T06:02:07;38.08;;;24.95;;
71236;SDS011;58984;51.960;5.582;2022-12-16T06:04:51;39.25;;;23.75;;
71236;SDS011;58984;51.960;5.582;2022-12-16T06:07:35;41.78;;;25.13;;
71236;SDS011;58984;51.960;5.582;2022-12-16T06:10:19;39.85;;;24.67;;
71236;SDS011;58984;51.960;5.582;2022-12-16T06:13:03;45.45;;;24.58;;
71236;SDS011;58984;51.960;5.582;2022-12-16T06:15:47;36.15;;;23.85;;
71236;SDS011;58984;51.960;5.582;2022-12-16T06:18:33;39.40;;;24.25;;
71236;SDS011;58984;51.960;5.582;2022-12-16T06:21:17;34.33;;;23.90;;
71236;SDS011;58984;51.960;5.582;2022-12-16T06:24:02;37.97;;;23.58;;
71236;SDS011;58984;51.960;5.582;2022-12-16T06:26:46;38.05;;;23.77;;
71236;SDS011;58984;51.960;5.582;2022-12-16T06:29:30;40.95;;;24.50;;
71236;SDS011;58984;51.960;5.582;2022-12-16T06:32:14;41.95;;;23.00;;
71236;SDS011;58984;51.960;5.582;2022-12-16T06:34:59;36.38;;;22.95;;
71236;SDS011;58984;51.960;5.582;2022-12-16T06:37:45;37.10;;;23.65;;
71236;SDS011;58984;51.960;5.582;2022-12-16T06:40:30;31.77;;;21.60;;
71236;SDS011;58984;51.960;5.582;2022-12-16T06:43:14;40.80;;;23.17;;
71236;SDS011;58984;51.960;5.582;2022-12-16T06:45:58;35.65;;;22.20;;
71236;SDS011;58984;51.960;5.582;2022-12-16T06:48:42;37.30;;;23.10;;
71236;SDS011;58984;51.960;5.582;2022-12-16T06:51:26;38.70;;;23.65;;
71236;SDS011;58984;51.960;5.582;2022-12-16T06:54:10;36.10;;;22.30;;
71236;SDS011;58984;51.960;5.582;2022-12-16T06:56:54;41.20;;;23.10;;
71236;SDS011;58984;51.960;5.582;2022-12-16T06:59:38;37.25;;;23.58;;
71236;SDS011;58984;51.960;5.582;2022-12-16T07:02:22;35.72;;;22.58;;
71236;SDS011;58984;51.960;5.582;2022-12-16T07:05:06;44.88;;;24.05;;
71236;SDS011;58984;51.960;5.582;2022-12-16T07:07:51;30.35;;;21.08;;
71236;SDS011;58984;51.960;5.582;2022-12-16T07:10:36;33.50;;;21.60;;
71236;SDS011;58984;51.960;5.582;2022-12-16T07:13:20;37.65;;;21.25;;
71236;SDS011;58984;51.960;5.582;2022-12-16T07:16:05;33.83;;;21.17;;
71236;SDS011;58984;51.960;5.582;2022-12-16T07:18:49;34.33;;;21.88;;
71236;SDS011;58984;51.960;5.582;2022-12-16T07:21:33;31.45;;;21.02;;
71236;SDS011;58984;51.960;5.582;2022-12-16T07:24:17;33.50;;;22.15;;
71236;SDS011;58984;51.960;5.582;2022-12-16T07:27:01;37.33;;;21.45;;
71236;SDS011;58984;51.960;5.582;2022-12-16T07:29:45;31.83;;;20.38;;
71236;SDS011;58984;51.960;5.582;2022-12-16T07:32:29;32.65;;;20.13;;
71236;SDS011;58984;51.960;5.582;2022-12-16T07:35:13;33.35;;;21.52;;
71236;SDS011;58984;51.960;5.582;2022-12-16T07:37:57;29.35;;;20.42;;
71236;SDS011;58984;51.960;5.582;2022-12-16T07:40:41;34.55;;;21.08;;
71236;SDS011;58984;51.960;5.582;2022-12-16T07:43:25;33.08;;;19.35;;
71236;SDS011;58984;51.960;5.582;2022-12-16T07:46:09;30.48;;;20.50;;
71236;SDS011;58984;51.960;5.582;2022-12-16T07:48:53;35.40;;;21.77;;
71236;SDS011;58984;51.960;5.582;2022-12-16T07:51:37;30.58;;;20.20;;
71236;SDS011;58984;51.960;5.582;2022-12-16T07:54:21;33.63;;;19.95;;
71236;SDS011;58984;51.960;5.582;2022-12-16T07:57:05;27.75;;;17.90;;
71236;SDS011;58984;51.960;5.582;2022-12-16T07:59:49;27.80;;;19.13;;
71236;SDS011;58984;51.960;5.582;2022-12-16T08:02:33;35.22;;;20.60;;
71236;SDS011;58984;51.960;5.582;2022-12-16T08:05:17;30.55;;;19.23;;
71236;SDS011;58984;51.960;5.582;2022-12-16T08:08:01;31.10;;;19.08;;
71236;SDS011;58984;51.960;5.582;2022-12-16T08:10:47;32.35;;;18.20;;
71236;SDS011;58984;51.960;5.582;2022-12-16T08:13:31;26.38;;;17.63;;
71236;SDS011;58984;51.960;5.582;2022-12-16T08:16:15;25.98;;;17.65;;
71236;SDS011;58984;51.960;5.582;2022-12-16T08:19:00;30.65;;;17.02;;
71236;SDS011;58984;51.960;5.582;2022-12-16T08:21:44;27.10;;;18.13;;
71236;SDS011;58984;51.960;5.582;2022-12-16T08:24:28;26.63;;;16.95;;
71236;SDS011;58984;51.960;5.582;2022-12-16T08:27:12;23.65;;;15.32;;
71236;SDS011;58984;51.960;5.582;2022-12-16T08:29:56;24.95;;;16.70;;
71236;SDS011;58984;51.960;5.582;2022-12-16T08:32:40;26.60;;;16.45;;
71236;SDS011;58984;51.960;5.582;2022-12-16T08:35:24;23.65;;;16.20;;
71236;SDS011;58984;51.960;5.582;2022-12-16T08:38:08;24.70;;;15.30;;
71236;SDS011;58984;51.960;5.582;2022-12-16T08:40:53;26.48;;;15.90;;
71236;SDS011;58984;51.960;5.582;2022-12-16T08:43:37;23.25;;;16.25;;
71236;SDS011;58984;51.960;5.582;2022-12-16T08:46:22;25.88;;;14.95;;
71236;SDS011;58984;51.960;5.582;2022-12-16T08:49:06;26.38;;;14.43;;
71236;SDS011;58984;51.960;5.582;2022-12-16T08:51:50;19.83;;;14.82;;
71236;SDS011;58984;51.960;5.582;2022-12-16T08:54:34;20.70;;;14.20;;
71236;SDS011;58984;51.960;5.582;2022-12-16T08:57:18;20.70;;;13.90;;
71236;SDS011;58984;51.960;5.582;2022-12-16T09:00:03;22.40;;;13.95;;
71236;SDS011;58984;51.960;5.582;2022-12-16T09:02:51;21.67;;;14.10;;
71236;SDS011;58984;51.960;5.582;2022-12-16T09:05:37;22.48;;;14.23;;
71236;SDS011;58984;51.960;5.582;2022-12-16T09:08:21;22.75;;;14.05;;
71236;SDS011;58984;51.960;5.582;2022-12-16T09:11:05;20.98;;;14.13;;
71236;SDS011;58984;51.960;5.582;2022-12-16T09:13:49;18.05;;;13.90;;
71236;SDS011;58984;51.960;5.582;2022-12-16T09:16:33;19.75;;;13.90;;
71236;SDS011;58984;51.960;5.582;2022-12-16T09:19:17;20.10;;;12.57;;
71236;SDS011;58984;51.960;5.582;2022-12-16T09:22:02;18.08;;;13.10;;
71236;SDS011;58984;51.960;5.582;2022-12-16T09:24:45;18.77;;;12.38;;
71236;SDS011;58984;51.960;5.582;2022-12-16T09:27:30;18.02;;;12.48;;
71236;SDS011;58984;51.960;5.582;2022-12-16T09:30:14;19.45;;;12.65;;
71236;SDS011;58984;51.960;5.582;2022-12-16T09:33:00;17.38;;;12.00;;
71236;SDS011;58984;51.960;5.582;2022-12-16T09:35:44;21.75;;;12.43;;
71236;SDS011;58984;51.960;5.582;2022-12-16T09:38:28;16.25;;;11.45;;
71236;SDS011;58984;51.960;5.582;2022-12-16T09:50:45;18.10;;;12.40;;
71236;SDS011;58984;51.960;5.582;2022-12-16T09:53:30;16.83;;;11.32;;
71236;SDS011;58984;51.960;5.582;2022-12-16T09:56:25;17.83;;;11.30;;
71236;SDS011;58984;51.960;5.582;2022-12-16T09:59:18;18.10;;;11.50;;
71236;SDS011;58984;51.960;5.582;2022-12-16T10:02:11;18.73;;;11.20;;
71236;SDS011;58984;51.960;5.582;2022-12-16T10:04:57;12.07;;;9.75;;
71236;SDS011;58984;51.960;5.582;2022-12-16T10:07:47;15.52;;;10.38;;
71236;SDS011;58984;51.960;5.582;2022-12-16T10:16:53;14.75;;;9.07;;
71236;SDS011;58984;51.960;5.582;2022-12-16T10:26:19;13.27;;;7.88;;
71236;SDS011;58984;51.960;5.582;2022-12-16T10:32:00;12.88;;;7.53;;
71236;SDS011;58984;51.960;5.582;2022-12-16T10:35:01;11.52;;;7.70;;
71236;SDS011;58984;51.960;5.582;2022-12-16T10:37:58;10.50;;;7.50;;
71236;SDS011;58984;51.960;5.582;2022-12-16T10:40:43;12.07;;;7.93;;
71236;SDS011;58984;51.960;5.582;2022-12-16T10:43:34;13.88;;;7.28;;
71236;SDS011;58984;51.960;5.582;2022-12-16T10:46:27;14.60;;;6.75;;
71236;SDS011;58984;51.960;5.582;2022-12-16T10:49:15;11.27;;;7.53;;
71236;SDS011;58984;51.960;5.582;2022-12-16T10:51:59;10.40;;;6.43;;
71236;SDS011;58984;51.960;5.582;2022-12-16T10:57:59;8.98;;;6.57;;
71236;SDS011;58984;51.960;5.582;2022-12-16T11:01:18;12.60;;;6.60;;
71236;SDS011;58984;51.960;5.582;2022-12-16T11:19:02;10.30;;;7.00;;
71236;SDS011;58984;51.960;5.582;2022-12-16T11:21:47;10.63;;;6.90;;
71236;SDS011;58984;51.960;5.582;2022-12-16T11:24:32;17.75;;;8.40;;
71236;SDS011;58984;51.960;5.582;2022-12-16T11:30:14;10.65;;;7.22;;
71236;SDS011;58984;51.960;5.582;2022-12-16T11:33:03;17.27;;;9.30;;
71236;SDS011;58984;51.960;5.582;2022-12-16T11:36:13;14.95;;;8.85;;
71236;SDS011;58984;51.960;5.582;2022-12-16T11:39:01;16.15;;;10.07;;
71236;SDS011;58984;51.960;5.582;2022-12-16T11:41:47;12.90;;;9.82;;
71236;SDS011;58984;51.960;5.582;2022-12-16T11:44:38;18.35;;;9.77;;
71236;SDS011;58984;51.960;5.582;2022-12-16T11:50:27;17.65;;;10.85;;
71236;SDS011;58984;51.960;5.582;2022-12-16T11:53:24;16.80;;;11.32;;
71236;SDS011;58984;51.960;5.582;2022-12-16T11:56:31;23.45;;;11.85;;
71236;SDS011;58984;51.960;5.582;2022-12-16T12:05:32;19.45;;;12.68;;
71236;SDS011;58984;51.960;5.582;2022-12-16T12:08:27;23.05;;;12.57;;
71236;SDS011;58984;51.960;5.582;2022-12-16T12:11:42;22.73;;;12.32;;
71236;SDS011;58984;51.960;5.582;2022-12-16T12:14:42;22.20;;;13.25;;
71236;SDS011;58984;51.960;5.582;2022-12-16T12:27:20;28.58;;;14.70;;
71236;SDS011;58984;51.960;5.582;2022-12-16T12:30:12;27.08;;;14.48;;
71236;SDS011;58984;51.960;5.582;2022-12-16T12:33:07;23.50;;;14.10;;
71236;SDS011;58984;51.960;5.582;2022-12-16T12:36:03;22.08;;;15.10;;
71236;SDS011;58984;51.960;5.582;2022-12-16T12:42:11;21.50;;;14.85;;
71236;SDS011;58984;51.960;5.582;2022-12-16T12:57:04;30.63;;;17.48;;
71236;SDS011;58984;51.960;5.582;2022-12-16T12:59:53;26.08;;;16.55;;
71236;SDS011;58984;51.960;5.582;2022-12-16T13:05:33;29.02;;;18.42;;
71236;SDS011;58984;51.960;5.582;2022-12-16T13:11:20;31.85;;;20.52;;
71236;SDS011;58984;51.960;5.582;2022-12-16T13:17:21;30.48;;;20.92;;
71236;SDS011;58984;51.960;5.582;2022-12-16T13:26:16;36.70;;;22.60;;
71236;SDS011;58984;51.960;5.582;2022-12-16T13:29:22;36.30;;;23.20;;
71236;SDS011;58984;51.960;5.582;2022-12-16T13:38:00;40.05;;;23.27;;
71236;SDS011;58984;51.960;5.582;2022-12-16T13:43:48;36.88;;;24.63;;
71236;SDS011;58984;51.960;5.582;2022-12-16T13:46:49;36.63;;;24.67;;
71236;SDS011;58984;51.960;5.582;2022-12-16T13:55:36;44.07;;;23.87;;
71236;SDS011;58984;51.960;5.582;2022-12-16T14:01:42;31.85;;;22.80;;
71236;SDS011;58984;51.960;5.582;2022-12-16T14:04:45;37.67;;;23.83;;
71236;SDS011;58984;51.960;5.582;2022-12-16T14:07:33;38.92;;;23.23;;
71236;SDS011;58984;51.960;5.582;2022-12-16T14:10:24;45.65;;;24.70;;
71236;SDS011;58984;51.960;5.582;2022-12-16T14:16:23;35.58;;;23.42;;
71236;SDS011;58984;51.960;5.582;2022-12-16T14:25:14;40.80;;;23.25;;
71236;SDS011;58984;51.960;5.582;2022-12-16T14:28:01;41.35;;;24.15;;
71236;SDS011;58984;51.960;5.582;2022-12-16T14:31:08;43.63;;;24.88;;
71236;SDS011;58984;51.960;5.582;2022-12-16T14:34:01;41.83;;;25.02;;
71236;SDS011;58984;51.960;5.582;2022-12-16T14:36:45;36.08;;;23.92;;
71236;SDS011;58984;51.960;5.582;2022-12-16T14:39:30;46.92;;;26.48;;
71236;SDS011;58984;51.960;5.582;2022-12-16T14:42:20;46.50;;;26.30;;
71236;SDS011;58984;51.960;5.582;2022-12-16T14:48:24;45.60;;;26.33;;
71236;SDS011;58984;51.960;5.582;2022-12-16T14:55:03;43.97;;;26.13;;
71236;SDS011;58984;51.960;5.582;2022-12-16T15:02:56;45.47;;;27.92;;
71236;SDS011;58984;51.960;5.582;2022-12-16T15:05:54;43.65;;;25.48;;
71236;SDS011;58984;51.960;5.582;2022-12-16T15:08:45;42.63;;;25.73;;
71236;SDS011;58984;51.960;5.582;2022-12-16T15:11:38;42.22;;;26.08;;
71236;SDS011;58984;51.960;5.582;2022-12-16T15:14:31;44.38;;;24.90;;
71236;SDS011;58984;51.960;5.582;2022-12-16T15:20:20;46.03;;;26.88;;
71236;SDS011;58984;51.960;5.582;2022-12-16T15:23:29;43.83;;;26.23;;
71236;SDS011;58984;51.960;5.582;2022-12-16T15:26:20;45.10;;;27.20;;
71236;SDS011;58984;51.960;5.582;2022-12-16T15:32:36;50.70;;;26.50;;
71236;SDS011;58984;51.960;5.582;2022-12-16T15:40:58;44.15;;;27.38;;
71236;SDS011;58984;51.960;5.582;2022-12-16T15:43:44;43.53;;;28.33;;
71236;SDS011;58984;51.960;5.582;2022-12-16T15:46:30;45.83;;;27.77;;
71236;SDS011;58984;51.960;5.582;2022-12-16T15:51:58;44.53;;;27.50;;
71236;SDS011;58984;51.960;5.582;2022-12-16T15:54:49;41.92;;;26.40;;
71236;SDS011;58984;51.960;5.582;2022-12-16T15:57:36;47.25;;;27.48;;
71236;SDS011;58984;51.960;5.582;2022-12-16T16:00:22;49.58;;;29.17;;
71236;SDS011;58984;51.960;5.582;2022-12-16T16:03:29;46.90;;;27.23;;
71236;SDS011;58984;51.960;5.582;2022-12-16T16:06:17;44.15;;;26.98;;
71236;SDS011;58984;51.960;5.582;2022-12-16T16:12:09;46.35;;;27.30;;
71236;SDS011;58984;51.960;5.582;2022-12-16T16:15:09;48.78;;;27.33;;
71236;SDS011;58984;51.960;5.582;2022-12-16T16:17:56;47.17;;;27.27;;
71236;SDS011;58984;51.960;5.582;2022-12-16T16:20:42;43.85;;;25.45;;
71236;SDS011;58984;51.960;5.582;2022-12-16T16:23:26;46.08;;;27.95;;
71236;SDS011;58984;51.960;5.582;2022-12-16T16:26:14;44.65;;;26.42;;
71236;SDS011;58984;51.960;5.582;2022-12-16T16:29:00;42.00;;;26.38;;
71236;SDS011;58984;51.960;5.582;2022-12-16T16:31:44;41.72;;;26.77;;
71236;SDS011;58984;51.960;5.582;2022-12-16T16:34:29;41.30;;;26.83;;
71236;SDS011;58984;51.960;5.582;2022-12-16T16:37:14;44.03;;;26.20;;
71236;SDS011;58984;51.960;5.582;2022-12-16T16:39:59;39.25;;;25.50;;
71236;SDS011;58984;51.960;5.582;2022-12-16T16:42:44;46.13;;;26.17;;
71236;SDS011;58984;51.960;5.582;2022-12-16T16:45:28;40.92;;;25.40;;
71236;SDS011;58984;51.960;5.582;2022-12-16T16:48:13;40.40;;;27.25;;
71236;SDS011;58984;51.960;5.582;2022-12-16T16:51:01;47.10;;;28.05;;
71236;SDS011;58984;51.960;5.582;2022-12-16T16:54:03;46.00;;;26.27;;
71236;SDS011;58984;51.960;5.582;2022-12-16T16:56:47;42.50;;;25.00;;
71236;SDS011;58984;51.960;5.582;2022-12-16T16:59:31;40.83;;;25.13;;
71236;SDS011;58984;51.960;5.582;2022-12-16T17:02:16;41.75;;;25.30;;
71236;SDS011;58984;51.960;5.582;2022-12-16T17:05:02;44.85;;;27.00;;
71236;SDS011;58984;51.960;5.582;2022-12-16T17:07:46;37.33;;;26.00;;
71236;SDS011;58984;51.960;5.582;2022-12-16T17:10:30;44.17;;;27.02;;
71236;SDS011;58984;51.960;5.582;2022-12-16T17:13:14;40.83;;;25.80;;
71236;SDS011;58984;51.960;5.582;2022-12-16T17:15:58;41.45;;;25.98;;
71236;SDS011;58984;51.960;5.582;2022-12-16T17:18:42;45.38;;;25.13;;
71236;SDS011;58984;51.960;5.582;2022-12-16T17:21:26;41.15;;;26.88;;
71236;SDS011;58984;51.960;5.582;2022-12-16T17:24:10;47.95;;;28.15;;
71236;SDS011;58984;51.960;5.582;2022-12-16T17:26:55;43.83;;;26.33;;
71236;SDS011;58984;51.960;5.582;2022-12-16T17:29:39;49.88;;;26.33;;
71236;SDS011;58984;51.960;5.582;2022-12-16T17:32:23;41.42;;;24.95;;
71236;SDS011;58984;51.960;5.582;2022-12-16T17:35:07;42.35;;;26.13;;
71236;SDS011;58984;51.960;5.582;2022-12-16T17:37:53;35.63;;;25.15;;
71236;SDS011;58984;51.960;5.582;2022-12-16T17:40:37;47.45;;;26.85;;
71236;SDS011;58984;51.960;5.582;2022-12-16T17:43:22;43.65;;;26.55;;
71236;SDS011;58984;51.960;5.582;2022-12-16T17:46:06;43.58;;;25.90;;
71236;SDS011;58984;51.960;5.582;2022-12-16T17:48:53;39.78;;;26.50;;
71236;SDS011;58984;51.960;5.582;2022-12-16T17:51:38;51.25;;;26.88;;
71236;SDS011;58984;51.960;5.582;2022-12-16T17:54:23;43.03;;;26.30;;
71236;SDS011;58984;51.960;5.582;2022-12-16T17:57:07;43.47;;;25.88;;
71236;SDS011;58984;51.960;5.582;2022-12-16T17:59:52;44.15;;;25.75;;
71236;SDS011;58984;51.960;5.582;2022-12-16T18:02:36;47.25;;;26.75;;
71236;SDS011;58984;51.960;5.582;2022-12-16T18:05:20;41.45;;;25.60;;
71236;SDS011;58984;51.960;5.582;2022-12-16T18:08:04;40.70;;;25.80;;
71236;SDS011;58984;51.960;5.582;2022-12-16T18:10:51;41.22;;;24.95;;
71236;SDS011;58984;51.960;5.582;2022-12-16T18:13:36;38.03;;;25.33;;
71236;SDS011;58984;51.960;5.582;2022-12-16T18:16:20;42.50;;;26.58;;
71236;SDS011;58984;51.960;5.582;2022-12-16T18:19:04;45.58;;;26.80;;
71236;SDS011;58984;51.960;5.582;2022-12-16T18:21:48;43.50;;;25.73;;
71236;SDS011;58984;51.960;5.582;2022-12-16T18:24:32;42.88;;;26.95;;
71236;SDS011;58984;51.960;5.582;2022-12-16T18:27:16;43.17;;;25.10;;
71236;SDS011;58984;51.960;5.582;2022-12-16T18:30:00;43.13;;;25.70;;
71236;SDS011;58984;51.960;5.582;2022-12-16T18:32:45;41.95;;;25.83;;
71236;SDS011;58984;51.960;5.582;2022-12-16T18:35:29;37.97;;;25.15;;
71236;SDS011;58984;51.960;5.582;2022-12-16T18:38:13;43.58;;;26.75;;
71236;SDS011;58984;51.960;5.582;2022-12-16T18:41:01;48.00;;;26.65;;
71236;SDS011;58984;51.960;5.582;2022-12-16T18:43:49;49.75;;;27.08;;
71236;SDS011;58984;51.960;5.582;2022-12-16T18:46:33;45.10;;;26.23;;
71236;SDS011;58984;51.960;5.582;2022-12-16T18:49:17;46.47;;;27.20;;
71236;SDS011;58984;51.960;5.582;2022-12-16T18:52:02;40.38;;;25.92;;
71236;SDS011;58984;51.960;5.582;2022-12-16T18:54:46;45.08;;;26.67;;